Time;durP1;ratioP1;P1;durP2;ratioP2;P2;SDS_P1;SDS_P2;PMS_P1;PMS_P2;Temp;Humidity;BMP_temperature;BMP_pressure;BME280_temperature;BME280_humidity;BME280_pressure;Samples;Min_cycle;Max_cycle;Signal;HPM_P1;HPM_P2
2022/03/18 00:00:07;;;;;;;140.85;64.75;;;5.80;99.90;;;;;;4972028;28;20463;-87
2022/03/18 00:02:34;;;;;;;139.82;59.75;;;5.80;99.90;;;;;;4972692;28;20106;-87
2022/03/18 00:04:59;;;;;;;152.48;64.93;;;5.70;99.90;;;;;;4972519;28;20051;-87
2022/03/18 00:07:26;;;;;;;155.25;66.25;;;5.60;99.90;;;;;;4966554;28;20042;-86
2022/03/18 00:09:52;;;;;;;144.32;60.90;;;5.70;99.90;;;;;;4938850;28;20477;-86
2022/03/18 00:12:18;;;;;;;143.63;61.15;;;5.80;99.90;;;;;;4971957;28;20066;-87
2022/03/18 00:14:43;;;;;;;161.07;69.65;;;5.80;99.90;;;;;;4972828;28;20497;-86
2022/03/18 00:17:11;;;;;;;151.40;62.55;;;5.70;99.90;;;;;;4968572;28;20035;-86
2022/03/18 00:19:38;;;;;;;148.05;67.18;;;5.80;99.90;;;;;;4972750;28;20471;-86
2022/03/18 00:22:05;;;;;;;149.98;64.43;;;5.80;99.90;;;;;;4970555;28;20070;-88
2022/03/18 00:24:32;;;;;;;140.23;62.90;;;5.80;99.90;;;;;;4972155;28;20062;-86
2022/03/18 00:27:03;;;;;;;165.25;72.45;;;5.80;99.90;;;;;;4971222;28;20070;-88
2022/03/18 00:29:31;;;;;;;135.57;55.60;;;5.80;99.90;;;;;;4971735;28;20023;-87
2022/03/18 00:31:57;;;;;;;161.52;64.22;;;5.80;99.90;;;;;;4982865;28;20035;-86
2022/03/18 00:34:23;;;;;;;147.55;66.90;;;5.70;99.90;;;;;;4961993;28;20125;-86
2022/03/18 00:36:49;;;;;;;169.35;69.57;;;5.70;99.90;;;;;;4972423;28;20037;-88
2022/03/18 00:39:14;;;;;;;151.02;62.42;;;5.50;99.90;;;;;;4968285;28;20051;-87
2022/03/18 00:41:41;;;;;;;140.00;62.60;;;5.60;99.90;;;;;;4977983;28;20027;-87
2022/03/18 00:44:07;;;;;;;159.63;64.03;;;5.70;99.90;;;;;;4971123;28;20110;-87
2022/03/18 00:46:33;;;;;;;153.77;67.38;;;5.70;99.90;;;;;;4971531;28;20110;-87
2022/03/18 00:54:27;;;;;;;139.10;63.28;;;5.60;99.90;;;;;;4970915;28;20089;-87
2022/03/18 00:56:53;;;;;;;146.70;63.03;;;5.70;99.90;;;;;;4971671;28;20026;-86
2022/03/18 00:59:18;;;;;;;127.75;58.25;;;5.70;99.90;;;;;;4966784;28;20130;-85
2022/03/18 01:01:44;;;;;;;134.15;60.20;;;5.70;99.90;;;;;;4955274;28;20395;-87
2022/03/18 01:04:10;;;;;;;152.38;64.22;;;5.70;99.90;;;;;;4969245;28;20082;-86
2022/03/18 01:06:36;;;;;;;143.95;64.68;;;5.60;99.90;;;;;;4968322;28;20035;-86
2022/03/18 01:09:03;;;;;;;146.18;63.92;;;5.50;99.90;;;;;;4969890;28;20114;-86
2022/03/18 01:11:30;;;;;;;134.85;55.88;;;5.50;99.90;;;;;;4968609;28;20074;-87
2022/03/18 01:13:56;;;;;;;150.07;61.88;;;5.50;99.90;;;;;;4970423;28;20038;-87
2022/03/18 01:16:21;;;;;;;145.38;62.45;;;5.50;99.90;;;;;;4968737;28;20031;-88
2022/03/18 01:18:47;;;;;;;146.10;58.78;;;5.60;99.90;;;;;;4968706;28;20115;-87
2022/03/18 01:21:13;;;;;;;153.23;66.32;;;5.60;99.90;;;;;;4970037;28;20109;-87
2022/03/18 01:23:38;;;;;;;131.30;57.70;;;5.50;99.90;;;;;;4971160;28;20042;-86
2022/03/18 01:26:04;;;;;;;136.63;59.13;;;5.60;99.90;;;;;;4971047;28;20039;-86
2022/03/18 01:28:30;;;;;;;130.25;58.22;;;5.60;99.90;;;;;;4938268;28;20501;-85
2022/03/18 01:30:56;;;;;;;126.10;59.30;;;5.50;99.90;;;;;;4970201;28;20070;-86
2022/03/18 01:33:22;;;;;;;144.23;58.70;;;5.60;99.90;;;;;;4970611;28;20045;-86
2022/03/18 01:35:48;;;;;;;137.43;63.95;;;5.60;99.90;;;;;;4971732;28;20027;-86
2022/03/18 01:38:14;;;;;;;138.40;61.10;;;5.50;99.90;;;;;;4970751;28;20043;-88
2022/03/18 01:40:40;;;;;;;132.65;55.83;;;5.40;99.90;;;;;;4966270;28;20118;-86
2022/03/18 01:43:12;;;;;;;135.25;57.50;;;5.40;99.90;;;;;;4967694;28;20166;-87
2022/03/18 01:45:38;;;;;;;131.57;58.95;;;5.50;99.90;;;;;;4980277;28;20046;-88
2022/03/18 01:48:05;;;;;;;126.90;56.50;;;5.40;99.90;;;;;;4971303;28;20513;-87
2022/03/18 01:50:31;;;;;;;134.30;57.50;;;5.50;99.90;;;;;;4968031;28;20039;-87
2022/03/18 01:52:57;;;;;;;132.48;59.00;;;5.50;99.90;;;;;;4983183;28;20411;-85
2022/03/18 01:55:24;;;;;;;149.15;64.13;;;5.50;99.90;;;;;;4969960;28;20031;-88
2022/03/18 01:57:50;;;;;;;138.73;60.90;;;5.50;99.90;;;;;;4970971;28;20504;-87
2022/03/18 02:00:18;;;;;;;149.70;61.58;;;5.40;99.90;;;;;;4969801;28;20039;-88
2022/03/18 02:02:44;;;;;;;125.93;57.75;;;5.40;99.90;;;;;;4968922;28;20039;-88
2022/03/18 02:05:10;;;;;;;138.82;56.88;;;5.40;99.90;;;;;;4970142;28;20561;-87
2022/03/18 02:07:37;;;;;;;127.72;56.90;;;5.40;99.90;;;;;;4970900;28;20035;-87
2022/03/18 02:10:04;;;;;;;143.00;57.60;;;5.50;99.90;;;;;;4969002;28;20034;-87
2022/03/18 02:12:29;;;;;;;127.03;54.58;;;5.40;99.90;;;;;;4969721;28;20062;-88
2022/03/18 02:14:55;;;;;;;114.55;54.05;;;5.40;99.90;;;;;;4967139;28;20467;-87
2022/03/18 02:17:22;;;;;;;136.10;57.65;;;5.40;99.90;;;;;;4970328;28;20050;-87
2022/03/18 02:19:48;;;;;;;120.55;53.75;;;5.40;99.90;;;;;;4970484;28;20085;-88
2022/03/18 02:22:18;;;;;;;132.95;59.58;;;5.50;99.90;;;;;;4962314;28;20035;-86
2022/03/18 02:24:46;;;;;;;123.85;55.85;;;5.50;99.90;;;;;;4967946;28;20023;-87
2022/03/18 02:27:13;;;;;;;140.73;56.35;;;5.40;99.90;;;;;;4968929;28;20045;-87
2022/03/18 02:29:39;;;;;;;151.57;64.28;;;5.50;99.90;;;;;;4969272;28;20105;-86
2022/03/18 02:32:07;;;;;;;128.38;58.28;;;5.50;99.90;;;;;;4970029;28;20065;-87
2022/03/18 02:34:33;;;;;;;136.05;55.72;;;5.40;99.90;;;;;;4969627;28;20054;-87
2022/03/18 02:36:59;;;;;;;130.07;54.88;;;5.40;99.90;;;;;;4969614;28;20023;-87
2022/03/18 02:39:25;;;;;;;119.97;55.85;;;5.40;99.90;;;;;;4969769;28;20038;-86
2022/03/18 02:41:51;;;;;;;118.40;53.85;;;5.40;99.90;;;;;;4969940;28;20494;-87
2022/03/18 02:44:17;;;;;;;113.57;52.88;;;5.40;99.90;;;;;;4953254;28;20023;-86
2022/03/18 02:46:43;;;;;;;127.97;55.75;;;5.40;99.90;;;;;;4957754;28;20034;-88
2022/03/18 02:49:08;;;;;;;128.55;58.88;;;5.40;99.90;;;;;;4968963;28;20026;-86
2022/03/18 02:51:37;;;;;;;108.07;51.08;;;5.50;99.90;;;;;;4969397;28;20027;-86
2022/03/18 02:54:05;;;;;;;122.35;54.33;;;5.50;99.90;;;;;;4969864;28;20031;-87
2022/03/18 02:56:32;;;;;;;118.88;51.75;;;5.40;99.90;;;;;;4967945;28;20034;-88
2022/03/18 02:58:57;;;;;;;117.40;54.20;;;5.50;99.90;;;;;;4965729;28;20058;-87
2022/03/18 03:01:25;;;;;;;127.40;55.55;;;5.50;99.90;;;;;;4959826;28;20062;-89
2022/03/18 03:03:51;;;;;;;115.80;51.05;;;5.40;99.90;;;;;;4969844;28;20049;-87
2022/03/18 03:09:01;;;;;;;127.07;54.33;;;5.30;99.90;;;;;;4969825;28;20402;-86
2022/03/18 03:11:26;;;;;;;114.30;53.25;;;5.40;99.90;;;;;;4984073;28;20357;-89
2022/03/18 03:13:52;;;;;;;111.70;49.20;;;5.40;99.90;;;;;;4970383;28;20073;-88
2022/03/18 03:16:21;;;;;;;122.63;53.20;;;5.50;99.90;;;;;;4969838;28;20035;-87
2022/03/18 03:18:48;;;;;;;120.85;51.60;;;5.40;99.90;;;;;;4969361;28;20023;-89
2022/03/18 03:21:14;;;;;;;120.10;55.88;;;5.40;99.90;;;;;;4968969;28;20031;-89
2022/03/18 03:23:39;;;;;;;121.13;52.72;;;5.40;99.90;;;;;;4973368;28;20042;-86
2022/03/18 03:26:05;;;;;;;122.97;53.03;;;5.40;99.90;;;;;;4973346;28;20043;-86
2022/03/18 03:28:31;;;;;;;122.50;54.25;;;5.20;99.90;;;;;;4972152;28;20030;-86
2022/03/18 03:30:56;;;;;;;114.35;51.25;;;5.20;99.90;;;;;;4972725;28;20041;-88
2022/03/18 03:33:22;;;;;;;137.18;58.08;;;5.20;99.90;;;;;;4971045;28;20038;-87
2022/03/18 03:35:48;;;;;;;117.55;51.97;;;5.30;99.90;;;;;;4969679;28;20035;-87
2022/03/18 03:38:14;;;;;;;129.30;54.72;;;5.40;99.90;;;;;;4971689;28;20041;-87
2022/03/18 03:40:40;;;;;;;119.88;51.72;;;5.40;99.90;;;;;;4968313;28;20023;-88
2022/03/18 03:43:08;;;;;;;114.05;48.97;;;5.30;99.90;;;;;;4985930;28;20502;-87
2022/03/18 03:45:37;;;;;;;120.30;54.08;;;5.30;99.90;;;;;;4972660;28;20041;-86
2022/03/18 03:48:04;;;;;;;112.25;50.20;;;5.40;99.90;;;;;;4972688;28;20134;-88
2022/03/18 03:50:30;;;;;;;114.07;49.97;;;5.40;99.90;;;;;;4972743;28;20035;-87
2022/03/18 03:52:55;;;;;;;111.78;49.20;;;5.30;99.90;;;;;;4972262;28;20090;-87
2022/03/18 03:55:21;;;;;;;119.35;54.35;;;5.40;99.90;;;;;;4971059;28;20039;-88
2022/03/18 03:57:47;;;;;;;118.90;54.70;;;5.40;99.90;;;;;;4969498;28;20030;-88
2022/03/18 04:00:13;;;;;;;131.30;54.47;;;5.20;99.90;;;;;;4968765;28;20686;-87
2022/03/18 04:02:39;;;;;;;140.85;57.42;;;5.20;99.90;;;;;;4972018;28;20034;-88
2022/03/18 04:05:08;;;;;;;117.10;53.65;;;5.20;99.90;;;;;;4971707;28;20051;-87
2022/03/18 04:07:37;;;;;;;200.98;63.70;;;5.10;99.90;;;;;;4970409;28;20034;-87
2022/03/18 04:10:04;;;;;;;116.47;54.38;;;5.30;99.90;;;;;;4971609;28;20027;-87
2022/03/18 04:12:32;;;;;;;127.50;52.92;;;5.30;99.90;;;;;;4972552;28;20117;-87
2022/03/18 04:14:58;;;;;;;119.43;49.55;;;5.40;99.90;;;;;;4971677;28;20088;-86
2022/03/18 04:17:26;;;;;;;116.22;51.58;;;5.40;99.90;;;;;;4971900;28;20042;-87
2022/03/18 04:19:55;;;;;;;109.10;49.08;;;5.40;99.90;;;;;;4972644;28;20027;-87
2022/03/18 04:22:21;;;;;;;115.63;49.67;;;5.40;99.90;;;;;;4972235;28;20130;-88
2022/03/18 04:24:46;;;;;;;116.97;50.95;;;5.40;99.90;;;;;;4972335;28;20027;-86
2022/03/18 04:27:12;;;;;;;119.55;51.90;;;5.20;99.90;;;;;;4970471;28;20397;-87
2022/03/18 04:29:38;;;;;;;114.03;51.78;;;5.10;99.90;;;;;;4971159;28;20108;-88
2022/03/18 04:32:04;;;;;;;112.82;53.50;;;5.10;99.90;;;;;;4972061;28;20113;-88
2022/03/18 04:34:30;;;;;;;106.72;51.00;;;5.20;99.90;;;;;;4971478;28;20101;-88
2022/03/18 04:36:55;;;;;;;121.93;54.22;;;5.20;99.90;;;;;;4971428;28;20031;-86
2022/03/18 04:39:21;;;;;;;112.85;48.90;;;5.10;99.90;;;;;;4971285;28;20062;-88
2022/03/18 04:41:47;;;;;;;115.95;50.00;;;5.10;99.90;;;;;;4971671;28;20486;-87
2022/03/18 04:44:12;;;;;;;119.93;49.55;;;5.10;99.90;;;;;;4972329;28;20031;-86
2022/03/18 04:46:38;;;;;;;127.25;50.97;;;5.10;99.90;;;;;;4972017;28;20034;-88
2022/03/18 04:49:04;;;;;;;130.20;52.53;;;5.10;99.90;;;;;;4967921;28;20034;-87
2022/03/18 04:51:30;;;;;;;108.43;50.00;;;5.10;99.90;;;;;;4971605;28;20056;-85
2022/03/18 04:53:57;;;;;;;105.10;48.33;;;5.10;99.90;;;;;;4972052;28;20043;-89
2022/03/18 04:59:07;;;;;;;111.28;44.55;;;5.00;99.90;;;;;;4966392;28;20050;-88
2022/03/18 05:01:33;;;;;;;106.55;47.55;;;5.00;99.90;;;;;;4964239;28;20342;-90
2022/03/18 05:03:58;;;;;;;118.93;51.15;;;5.10;99.90;;;;;;4971849;28;20644;-88
2022/03/18 05:06:25;;;;;;;118.38;50.00;;;5.10;99.90;;;;;;4971481;28;20026;-88
2022/03/18 05:08:51;;;;;;;110.65;50.13;;;5.10;99.90;;;;;;4968314;28;20390;-89
2022/03/18 05:11:16;;;;;;;108.05;48.15;;;5.10;99.90;;;;;;4970880;28;20031;-88
2022/03/18 05:13:42;;;;;;;121.22;50.90;;;5.10;99.90;;;;;;4968826;28;20033;-89
2022/03/18 05:16:08;;;;;;;128.80;49.13;;;5.00;99.90;;;;;;4971210;28;20308;-88
2022/03/18 05:18:33;;;;;;;122.47;53.17;;;5.00;99.90;;;;;;4970317;28;20026;-88
2022/03/18 05:20:59;;;;;;;104.47;50.47;;;5.00;99.90;;;;;;4960804;28;20391;-88
2022/03/18 05:23:25;;;;;;;124.63;51.47;;;4.90;99.90;;;;;;4957285;28;20502;-86
2022/03/18 05:25:50;;;;;;;120.40;49.42;;;4.90;99.90;;;;;;4969506;28;20085;-88
2022/03/18 05:28:17;;;;;;;119.07;46.60;;;5.10;99.90;;;;;;4970927;28;20109;-86
2022/03/18 05:30:43;;;;;;;120.40;53.00;;;5.10;99.90;;;;;;4970760;28;20089;-85
2022/03/18 05:33:09;;;;;;;130.48;52.83;;;5.20;99.90;;;;;;4971201;28;20038;-85
2022/03/18 05:35:35;;;;;;;122.82;54.10;;;5.10;99.90;;;;;;4971155;28;20038;-88
2022/03/18 05:38:01;;;;;;;112.40;51.05;;;5.20;99.90;;;;;;4966250;28;20027;-86
2022/03/18 05:40:26;;;;;;;114.65;52.25;;;5.20;99.90;;;;;;4972029;28;20064;-89
2022/03/18 05:42:52;;;;;;;115.13;53.38;;;5.10;99.90;;;;;;4971250;28;20042;-83
2022/03/18 05:45:18;;;;;;;110.50;46.83;;;5.00;99.90;;;;;;4972167;28;20549;-85
2022/03/18 05:47:44;;;;;;;124.57;51.95;;;5.10;99.90;;;;;;4968250;28;20030;-87
2022/03/18 05:50:15;;;;;;;113.13;51.70;;;5.10;99.90;;;;;;4979531;28;20518;-87
2022/03/18 05:52:41;;;;;;;114.50;50.03;;;5.20;99.90;;;;;;4969916;28;20026;-86
2022/03/18 05:55:07;;;;;;;113.50;48.25;;;5.30;99.90;;;;;;4984863;28;20468;-86
2022/03/18 05:57:33;;;;;;;124.40;52.80;;;5.30;99.90;;;;;;4970554;28;20486;-86
2022/03/18 05:59:59;;;;;;;121.32;50.10;;;5.30;99.90;;;;;;4970599;28;20031;-83
2022/03/18 06:02:25;;;;;;;129.38;53.15;;;5.30;99.90;;;;;;4968539;28;20046;-85
2022/03/18 06:04:51;;;;;;;131.82;51.38;;;5.20;99.90;;;;;;4970800;28;20117;-84
2022/03/18 06:07:17;;;;;;;127.75;58.40;;;5.20;99.90;;;;;;4970723;28;20039;-82
2022/03/18 06:12:28;;;;;;;113.22;43.55;;;5.30;99.90;;;;;;4971028;28;20522;-84
2022/03/18 06:14:54;;;;;;;117.07;46.85;;;5.40;99.90;;;;;;4970381;28;20070;-86
2022/03/18 06:17:20;;;;;;;138.98;54.97;;;5.40;99.90;;;;;;4961066;28;20059;-85
2022/03/18 06:19:46;;;;;;;117.03;49.05;;;5.40;99.90;;;;;;4971205;28;20034;-83
2022/03/18 06:22:11;;;;;;;142.25;59.22;;;5.40;99.90;;;;;;4969565;28;20034;-86
2022/03/18 06:24:37;;;;;;;132.52;55.15;;;5.30;99.90;;;;;;4984398;28;20035;-86
2022/03/18 06:27:04;;;;;;;119.32;51.42;;;5.30;99.90;;;;;;4968352;28;20023;-87
2022/03/18 06:29:30;;;;;;;122.93;49.47;;;5.20;99.90;;;;;;4966433;28;20035;-86
2022/03/18 06:31:57;;;;;;;133.65;51.63;;;5.20;99.90;;;;;;4966555;28;20038;-86
2022/03/18 06:34:23;;;;;;;129.30;51.83;;;5.20;99.90;;;;;;4962764;28;20077;-88
2022/03/18 06:36:54;;;;;;;129.10;54.63;;;5.30;99.90;;;;;;4965737;28;20035;-87
2022/03/18 06:39:22;;;;;;;122.47;47.78;;;5.30;99.90;;;;;;4967202;28;20031;-85
2022/03/18 06:41:48;;;;;;;125.43;54.80;;;5.20;99.90;;;;;;4968117;28;20647;-86
2022/03/18 06:44:14;;;;;;;127.38;52.88;;;5.30;99.90;;;;;;4967013;28;20110;-87
2022/03/18 06:46:40;;;;;;;125.07;54.90;;;5.30;99.90;;;;;;4967236;28;20023;-88
2022/03/18 06:49:07;;;;;;;129.82;54.03;;;5.30;99.90;;;;;;4967117;28;20094;-88
2022/03/18 06:51:33;;;;;;;127.07;49.47;;;5.40;99.90;;;;;;4970094;28;20023;-86
2022/03/18 06:53:59;;;;;;;128.52;45.85;;;5.40;99.90;;;;;;4969894;28;20029;-87
2022/03/18 06:56:27;;;;;;;129.75;54.00;;;5.40;99.90;;;;;;4967906;28;20037;-87
2022/03/18 06:58:53;;;;;;;127.68;50.28;;;5.40;99.90;;;;;;4965632;28;20402;-86
2022/03/18 07:01:21;;;;;;;127.15;53.85;;;5.50;99.90;;;;;;4972602;28;20486;-85
2022/03/18 07:03:47;;;;;;;113.93;44.78;;;5.40;99.90;;;;;;4973197;28;20089;-86
2022/03/18 07:06:13;;;;;;;136.07;49.80;;;5.40;99.90;;;;;;4965049;28;20630;-87
2022/03/18 07:08:39;;;;;;;124.03;47.80;;;5.40;99.90;;;;;;4971197;28;20114;-87
2022/03/18 07:11:05;;;;;;;113.75;47.85;;;5.50;99.90;;;;;;4973558;28;20072;-86
2022/03/18 07:13:31;;;;;;;125.65;49.33;;;5.50;99.90;;;;;;4973550;28;20030;-87
2022/03/18 07:17:54;;;;;;;125.70;54.42;;;5.50;99.90;;;;;;4973401;28;20035;-87
2022/03/18 07:18:43;;;;;;;120.97;46.75;;;5.50;99.90;;;;;;4971428;28;20061;-87
2022/03/18 07:21:09;;;;;;;114.05;47.53;;;5.60;99.90;;;;;;4972963;28;20027;-86
2022/03/18 07:23:34;;;;;;;122.72;44.78;;;5.60;99.90;;;;;;4972295;28;20030;-88
2022/03/18 07:26:00;;;;;;;103.15;44.17;;;5.60;99.90;;;;;;4971007;28;20046;-87
2022/03/18 07:28:25;;;;;;;131.77;47.53;;;5.70;99.90;;;;;;4972760;28;20109;-87
2022/03/18 07:30:51;;;;;;;107.75;44.08;;;5.60;99.90;;;;;;4971502;28;20093;-86
2022/03/18 07:33:17;;;;;;;110.05;45.22;;;5.70;99.90;;;;;;4973430;28;20046;-88
2022/03/18 07:35:43;;;;;;;123.10;47.05;;;5.60;99.90;;;;;;4971656;28;20042;-86
2022/03/18 07:38:09;;;;;;;113.63;43.75;;;5.60;99.90;;;;;;4971597;28;20117;-88
2022/03/18 07:40:38;;;;;;;124.50;47.50;;;5.70;99.90;;;;;;4971695;28;20030;-84
2022/03/18 07:43:05;;;;;;;122.05;48.05;;;5.70;99.90;;;;;;4973615;28;20035;-85
2022/03/18 07:45:34;;;;;;;113.00;46.05;;;5.90;99.90;;;;;;4972507;28;20363;-87
2022/03/18 07:48:02;;;;;;;115.75;47.83;;;5.90;99.90;;;;;;4973269;28;20035;-86
2022/03/18 07:50:29;;;;;;;101.10;39.10;;;5.80;99.90;;;;;;4971472;28;20035;-84
2022/03/18 07:52:58;;;;;;;110.70;41.47;;;5.80;99.90;;;;;;4973107;28;20686;-87
2022/03/18 07:55:25;;;;;;;111.47;47.42;;;5.90;99.90;;;;;;4970281;28;20065;-86
2022/03/18 07:57:52;;;;;;;110.10;42.20;;;6.00;99.90;;;;;;4972930;28;20042;-87
2022/03/18 08:00:18;;;;;;;118.55;49.00;;;5.90;99.90;;;;;;4971269;28;20078;-86
2022/03/18 08:02:46;;;;;;;105.22;40.08;;;6.00;99.90;;;;;;4972019;28;20029;-88
2022/03/18 08:05:12;;;;;;;91.85;36.05;;;6.00;99.90;;;;;;4967226;28;20051;-85
2022/03/18 08:07:39;;;;;;;120.90;44.92;;;6.00;99.90;;;;;;4972057;28;20121;-88
2022/03/18 08:10:06;;;;;;;116.28;46.95;;;6.00;99.90;;;;;;4971132;28;20035;-87
2022/03/18 08:12:33;;;;;;;105.20;43.90;;;6.20;99.90;;;;;;4970797;28;20034;-87
2022/03/18 08:15:00;;;;;;;108.80;44.97;;;6.30;99.90;;;;;;4971302;28;20035;-84
2022/03/18 08:17:26;;;;;;;99.72;37.17;;;6.40;99.90;;;;;;4968763;28;20033;-84
2022/03/18 08:19:52;;;;;;;84.63;31.95;;;6.50;99.90;;;;;;4972105;28;20027;-86
2022/03/18 08:22:22;;;;;;;93.85;39.20;;;6.40;99.90;;;;;;4972052;28;20035;-87
2022/03/18 08:24:51;;;;;;;86.93;39.83;;;6.40;99.90;;;;;;4970976;28;20073;-86
2022/03/18 08:27:17;;;;;;;100.57;39.17;;;6.50;99.90;;;;;;4971930;28;20085;-86
2022/03/18 08:29:45;;;;;;;91.18;34.88;;;6.50;99.90;;;;;;4973123;28;20480;-86
2022/03/18 08:32:13;;;;;;;107.03;43.85;;;6.50;99.90;;;;;;4972046;28;20046;-83
2022/03/18 08:34:39;;;;;;;102.80;42.17;;;6.50;99.90;;;;;;4966671;28;20038;-87
2022/03/18 08:37:05;;;;;;;100.13;45.97;;;6.50;99.90;;;;;;4970300;28;20031;-88
2022/03/18 08:39:38;;;;;;;97.53;41.50;;;6.50;99.90;;;;;;4971429;28;20031;-85
2022/03/18 08:42:04;;;;;;;116.95;45.53;;;6.50;99.90;;;;;;4970646;28;20039;-85
2022/03/18 08:44:30;;;;;;;83.68;40.28;;;6.70;99.90;;;;;;4968631;28;20334;-85
2022/03/18 08:46:57;;;;;;;91.75;39.03;;;6.80;99.90;;;;;;4969975;28;20066;-87
2022/03/18 08:49:23;;;;;;;102.10;42.08;;;6.90;99.90;;;;;;4971573;28;20027;-86
2022/03/18 08:51:48;;;;;;;94.88;41.72;;;6.90;99.90;;;;;;4971649;28;20035;-85
2022/03/18 08:54:14;;;;;;;90.13;37.17;;;6.90;99.90;;;;;;4967501;28;20046;-85
2022/03/18 08:56:40;;;;;;;90.78;36.85;;;6.90;99.90;;;;;;4970708;28;20030;-87
2022/03/18 08:59:08;;;;;;;85.20;39.47;;;6.80;99.90;;;;;;4970850;28;20045;-85
2022/03/18 09:01:34;;;;;;;92.60;40.15;;;6.80;99.90;;;;;;4969385;28;20042;-87
2022/03/18 09:04:00;;;;;;;83.50;35.78;;;6.70;99.90;;;;;;4970232;28;20050;-87
2022/03/18 09:06:26;;;;;;;74.85;30.08;;;6.70;99.90;;;;;;4971617;28;20073;-87
2022/03/18 09:08:52;;;;;;;83.05;31.30;;;6.70;99.90;;;;;;4969308;28;20054;-86
2022/03/18 09:11:17;;;;;;;83.93;36.75;;;6.70;99.90;;;;;;4971088;28;20307;-85
2022/03/18 09:13:44;;;;;;;87.30;40.05;;;6.60;99.90;;;;;;4966246;28;20043;-86
2022/03/18 09:16:11;;;;;;;75.78;37.38;;;6.80;99.90;;;;;;4959008;28;20031;-87
2022/03/18 09:18:37;;;;;;;89.38;40.17;;;6.80;99.90;;;;;;4971627;28;20074;-86
2022/03/18 09:21:03;;;;;;;81.45;38.72;;;6.70;99.90;;;;;;4969612;28;20430;-87
2022/03/18 09:23:30;;;;;;;95.07;42.20;;;6.80;99.90;;;;;;4963051;28;20070;-85
2022/03/18 09:25:57;;;;;;;88.22;40.47;;;6.90;99.90;;;;;;4971987;28;20122;-85
2022/03/18 09:28:22;;;;;;;75.45;33.58;;;7.00;99.90;;;;;;4969767;28;20022;-85
2022/03/18 09:30:49;;;;;;;79.82;35.20;;;7.10;99.90;;;;;;4967845;28;20035;-84
2022/03/18 09:33:15;;;;;;;83.03;39.00;;;7.20;99.90;;;;;;4969393;28;20519;-87
2022/03/18 09:35:40;;;;;;;81.93;37.58;;;7.20;99.90;;;;;;4968727;28;20033;-85
2022/03/18 09:38:06;;;;;;;75.28;38.63;;;7.20;99.90;;;;;;4966917;28;20042;-85
2022/03/18 09:40:32;;;;;;;64.50;32.60;;;7.20;99.90;;;;;;4969871;28;20033;-85
2022/03/18 09:43:03;;;;;;;77.97;36.83;;;7.20;99.90;;;;;;4968346;28;20062;-85
2022/03/18 09:45:32;;;;;;;65.72;31.65;;;7.30;99.90;;;;;;4965767;28;20133;-86
2022/03/18 09:48:09;;;;;;;68.03;35.08;;;7.50;99.90;;;;;;4970591;28;20397;-84
2022/03/18 09:50:36;;;;;;;70.90;34.58;;;7.50;99.90;;;;;;4970345;28;20035;-86
2022/03/18 09:53:03;;;;;;;62.35;30.33;;;7.60;99.90;;;;;;4968929;28;20059;-85
2022/03/18 09:55:30;;;;;;;73.60;36.33;;;7.70;99.90;;;;;;4966439;28;20550;-85
2022/03/18 09:57:56;;;;;;;64.85;30.48;;;7.80;99.90;;;;;;4966351;28;20027;-85
2022/03/18 10:00:22;;;;;;;76.25;37.47;;;7.70;99.90;;;;;;4970464;28;20371;-86
2022/03/18 10:03:06;;;;;;;80.57;35.15;;;7.50;99.90;;;;;;4970364;28;20061;-85
2022/03/18 10:05:32;;;;;;;71.85;36.25;;;7.70;99.90;;;;;;4965117;28;20487;-84
2022/03/18 10:07:58;;;;;;;71.55;35.65;;;7.80;99.90;;;;;;4970058;28;20030;-87
2022/03/18 10:10:27;;;;;;;70.85;33.72;;;7.70;99.90;;;;;;4969679;28;20031;-85
2022/03/18 10:12:56;;;;;;;71.60;31.75;;;7.60;99.90;;;;;;4968348;28;20112;-86
2022/03/18 10:15:24;;;;;;;70.50;33.30;;;7.60;99.90;;;;;;4969251;28;20030;-85
2022/03/18 10:17:51;;;;;;;62.55;30.08;;;7.80;99.90;;;;;;4962490;28;20070;-85
2022/03/18 10:20:40;;;;;;;66.47;34.13;;;7.90;99.90;;;;;;4968205;28;20058;-85
2022/03/18 10:23:15;;;;;;;71.35;40.33;;;8.00;99.90;;;;;;4970066;28;20041;-85
2022/03/18 10:25:42;;;;;;;65.57;32.88;;;8.10;99.90;;;;;;4969543;28;20027;-84
2022/03/18 10:28:09;;;;;;;72.10;37.28;;;8.20;99.90;;;;;;4968036;28;20039;-83
2022/03/18 10:30:36;;;;;;;70.35;35.17;;;8.00;99.30;;;;;;4967314;28;20378;-83
2022/03/18 10:33:03;;;;;;;69.88;32.95;;;8.00;99.90;;;;;;4970356;28;20264;-82
2022/03/18 10:38:31;;;;;;;58.53;29.00;;;7.80;99.90;;;;;;4967954;28;20053;-85
2022/03/18 10:40:58;;;;;;;67.60;34.05;;;8.00;99.90;;;;;;4970176;28;20459;-83
2022/03/18 10:43:24;;;;;;;61.00;29.77;;;8.10;99.90;;;;;;4970037;28;20775;-85
2022/03/18 10:46:05;;;;;;;65.13;31.73;;;8.10;99.10;;;;;;4969592;28;20026;-85
2022/03/18 10:48:32;;;;;;;67.47;32.08;;;8.10;99.70;;;;;;4958917;28;20031;-85
2022/03/18 10:51:06;;;;;;;67.85;32.58;;;8.10;99.20;;;;;;4969958;28;20046;-84
2022/03/18 10:53:33;;;;;;;65.40;32.85;;;8.00;99.50;;;;;;4969534;28;20053;-84
2022/03/18 10:56:01;;;;;;;72.95;33.80;;;8.30;99.80;;;;;;4969162;28;20027;-84
2022/03/18 10:58:32;;;;;;;69.95;35.08;;;8.20;99.60;;;;;;4969692;28;20470;-84
2022/03/18 11:00:59;;;;;;;;;;;8.50;99.90;;;;;;4967559;28;20058;-85
2022/03/18 11:03:25;;;;;;;71.20;33.65;;;8.90;97.10;;;;;;4969858;28;20317;-85
2022/03/18 11:05:51;;;;;;;60.33;32.25;;;9.20;95.80;;;;;;4969645;28;20515;-82
2022/03/18 11:08:22;;;;;;;69.97;33.83;;;9.30;96.00;;;;;;4966429;28;20098;-84
2022/03/18 11:11:14;;;;;;;60.53;32.63;;;9.30;96.10;;;;;;4961760;28;20113;-83
2022/03/18 11:14:03;;;;;;;66.00;34.30;;;9.20;93.50;;;;;;4959632;28;20034;-83
2022/03/18 11:16:33;;;;;;;61.15;32.30;;;9.20;93.40;;;;;;4963798;28;20068;-84
2022/03/18 11:19:03;;;;;;;60.78;31.15;;;9.60;93.00;;;;;;4966589;28;20066;-84
2022/03/18 11:21:38;;;;;;;52.80;26.77;;;9.50;92.80;;;;;;4968318;28;20029;-84
2022/03/18 11:24:06;;;;;;;55.25;32.40;;;9.80;91.80;;;;;;4966018;28;20540;-84
2022/03/18 11:26:34;;;;;;;57.33;30.13;;;10.00;91.50;;;;;;4966776;28;20046;-84
2022/03/18 11:29:28;;;;;;;61.78;30.63;;;10.10;91.50;;;;;;4962384;28;20033;-84
2022/03/18 11:32:26;;;;;;;57.17;30.55;;;10.30;91.20;;;;;;4967681;28;20089;-84
2022/03/18 11:35:03;;;;;;;56.90;29.35;;;10.60;91.20;;;;;;4951529;28;20059;-83
2022/03/18 11:37:29;;;;;;;60.40;31.60;;;10.60;89.00;;;;;;4967715;28;20497;-83
2022/03/18 11:40:23;;;;;;;58.28;34.05;;;10.60;89.90;;;;;;4969125;28;20027;-83
2022/03/18 11:42:49;;;;;;;58.28;30.08;;;10.70;87.20;;;;;;4963459;28;20165;-83
2022/03/18 11:45:37;;;;;;;60.13;31.60;;;10.50;88.00;;;;;;4970868;28;20031;-83
2022/03/18 11:48:36;;;;;;;55.90;29.08;;;10.50;88.60;;;;;;4972785;28;20027;-84
2022/03/18 11:51:24;;;;;;;57.70;31.90;;;10.00;90.90;;;;;;4973642;28;20031;-83
2022/03/18 11:53:54;;;;;;;59.72;34.35;;;10.10;91.50;;;;;;4967916;28;20105;-83
2022/03/18 11:56:44;;;;;;;59.00;32.47;;;10.40;87.30;;;;;;4969462;28;20858;-83
2022/03/18 11:59:25;;;;;;;61.58;32.28;;;11.10;85.50;;;;;;4972428;28;20038;-83
2022/03/18 12:02:01;;;;;;;50.92;30.80;;;11.40;80.70;;;;;;4970592;28;20038;-82
2022/03/18 12:04:33;;;;;;;50.60;27.92;;;11.50;80.80;;;;;;4972317;28;20058;-82
2022/03/18 12:07:20;;;;;;;53.35;27.23;;;11.80;80.10;;;;;;4970655;28;20058;-82
2022/03/18 12:10:08;;;;;;;54.85;28.65;;;11.80;79.10;;;;;;4968250;28;20066;-81
2022/03/18 12:12:39;;;;;;;49.78;29.23;;;11.70;79.00;;;;;;4969174;28;20031;-81
2022/03/18 12:15:06;;;;;;;61.92;35.33;;;11.60;79.20;;;;;;4970101;28;20035;-80
2022/03/18 12:17:44;;;;;;;61.22;32.22;;;11.50;75.80;;;;;;4971263;28;20026;-82
2022/03/18 12:20:15;;;;;;;52.65;30.63;;;11.70;76.30;;;;;;4970275;28;20181;-82
2022/03/18 12:22:42;;;;;;;49.85;28.25;;;11.90;75.40;;;;;;4969665;28;20053;-82
2022/03/18 12:25:08;;;;;;;50.67;29.73;;;12.00;73.90;;;;;;4970293;28;20042;-82
2022/03/18 12:27:39;;;;;;;54.22;27.40;;;12.00;76.50;;;;;;4971186;28;20055;-81
2022/03/18 12:30:08;;;;;;;53.92;30.88;;;11.90;75.90;;;;;;4971208;28;20062;-82
2022/03/18 12:32:38;;;;;;;51.17;29.35;;;11.60;76.50;;;;;;4968453;28;20039;-82
2022/03/18 12:35:05;;;;;;;55.60;31.60;;;11.40;77.30;;;;;;4971132;28;20227;-82
2022/03/18 12:37:31;;;;;;;56.80;30.75;;;11.20;80.20;;;;;;4971049;28;20475;-82
2022/03/18 12:40:06;;;;;;;54.63;29.83;;;11.40;78.30;;;;;;4970804;28;20041;-82
2022/03/18 12:42:44;;;;;;;50.42;26.90;;;11.20;79.80;;;;;;4967387;28;20027;-83
2022/03/18 12:45:10;;;;;;;53.03;29.70;;;11.30;77.70;;;;;;4971179;28;20078;-82
2022/03/18 12:47:38;;;;;;;50.00;28.30;;;11.80;77.80;;;;;;4970027;28;20035;-82
2022/03/18 12:50:04;;;;;;;51.45;28.42;;;12.40;73.80;;;;;;4967514;28;20031;-82